createdAt,value
2018-09-04T00:00:08.412Z,47.50
2018-09-04T00:01:08.419Z,47.70
2018-09-04T00:02:08.391Z,43.20
2018-09-04T00:03:08.384Z,41.50
2018-09-04T00:04:08.374Z,34.80
2018-09-04T00:05:08.374Z,34.10
2018-09-04T00:06:08.346Z,33.80
2018-09-04T00:07:08.337Z,32.20
2018-09-04T00:08:08.335Z,30.40
2018-09-04T00:09:08.315Z,31.20
2018-09-04T00:10:08.306Z,28.70
2018-09-04T00:11:08.294Z,29.50
2018-09-04T00:12:08.368Z,27.50
2018-09-04T00:13:08.275Z,29.50
2018-09-04T00:14:08.260Z,28.10
2018-09-04T00:15:08.248Z,27.40
2018-09-04T00:16:08.239Z,27.40
2018-09-04T00:17:08.227Z,27.70
2018-09-04T00:18:08.228Z,27.90
2018-09-04T00:19:08.207Z,27.90
2018-09-04T00:20:08.212Z,27.80
2018-09-04T00:21:08.184Z,27.20
2018-09-04T00:22:08.189Z,27.70
2018-09-04T00:23:08.165Z,26.60
2018-09-04T00:24:08.150Z,27.80
2018-09-04T00:25:08.143Z,26.80
2018-09-04T00:26:08.127Z,28.30
2018-09-04T00:27:08.125Z,28.10
2018-09-04T00:28:08.129Z,28.40
2018-09-04T00:29:08.098Z,29.70
2018-09-04T00:30:08.120Z,29.30
2018-09-04T00:31:08.077Z,28.50
2018-09-04T00:32:08.068Z,30.00
2018-09-04T00:33:08.058Z,28.50
2018-09-04T00:34:08.043Z,28.90
2018-09-04T00:35:08.035Z,28.70
2018-09-04T00:36:08.038Z,29.40
2018-09-04T00:37:08.011Z,30.70
2018-09-04T00:38:07.996Z,29.70
2018-09-04T00:39:07.990Z,31.90
2018-09-04T00:40:07.989Z,31.10
2018-09-04T00:41:07.965Z,30.60
2018-09-04T00:42:07.956Z,29.30
2018-09-04T00:43:07.946Z,30.10
2018-09-04T00:44:07.933Z,30.40
2018-09-04T00:45:07.944Z,30.90
2018-09-04T00:46:07.913Z,30.10
2018-09-04T00:47:07.901Z,31.20
2018-09-04T00:48:07.888Z,30.40
2018-09-04T00:49:07.878Z,31.20
2018-09-04T00:50:07.892Z,30.80
2018-09-04T00:51:07.856Z,31.10
2018-09-04T00:52:07.846Z,30.60
2018-09-04T00:53:07.834Z,28.90
2018-09-04T00:54:07.824Z,30.00
2018-09-04T00:55:07.811Z,31.10
2018-09-04T00:56:07.816Z,31.20
2018-09-04T00:57:07.791Z,30.90
2018-09-04T00:58:07.783Z,30.20
2018-09-04T00:59:07.827Z,30.20
2018-09-04T01:00:07.760Z,28.00
2018-09-04T01:01:07.767Z,28.70
2018-09-04T01:02:07.734Z,29.90
2018-09-04T01:03:07.745Z,29.30
2018-09-04T01:04:07.714Z,29.60
2018-09-04T01:05:07.703Z,30.30
2018-09-04T01:06:07.725Z,30.10
2018-09-04T01:07:07.685Z,31.10
2018-09-04T01:08:07.670Z,30.40
2018-09-04T01:09:07.660Z,28.60
2018-09-04T01:10:07.648Z,28.60
2018-09-04T01:11:07.637Z,29.40
2018-09-04T01:12:07.645Z,30.40
2018-09-04T01:13:07.619Z,29.60
2018-09-04T01:14:07.603Z,30.60
2018-09-04T01:15:07.591Z,30.20
2018-09-04T01:16:07.580Z,30.20
2018-09-04T01:17:07.583Z,31.20
2018-09-04T01:18:07.558Z,30.70
2018-09-04T01:19:07.551Z,32.40
2018-09-04T01:20:07.549Z,33.40
2018-09-04T01:21:07.528Z,32.70
2018-09-04T01:22:07.514Z,33.30
2018-09-04T01:23:07.504Z,32.90
2018-09-04T01:24:07.506Z,33.30
2018-09-04T01:25:07.500Z,33.60
2018-09-04T01:26:07.486Z,33.30
2018-09-04T01:27:07.464Z,34.80
2018-09-04T01:28:07.450Z,35.30
2018-09-04T01:29:07.438Z,35.90
2018-09-04T01:30:07.426Z,37.50
2018-09-04T01:31:07.414Z,37.60
2018-09-04T01:32:07.427Z,36.60
2018-09-04T01:33:07.394Z,37.30
2018-09-04T01:34:07.380Z,38.70
2018-09-04T01:35:07.380Z,37.30
2018-09-04T01:36:07.362Z,39.00
2018-09-04T01:37:07.347Z,41.30
2018-09-04T01:38:07.360Z,42.70
2018-09-04T01:39:07.323Z,41.40
2018-09-04T01:40:07.317Z,41.80
2018-09-04T01:41:07.302Z,42.20
2018-09-04T01:42:07.294Z,42.70
2018-09-04T01:43:07.280Z,43.80
2018-09-04T01:44:07.285Z,43.20
2018-09-04T01:45:07.276Z,42.60
2018-09-04T01:46:07.249Z,44.30
2018-09-04T01:47:07.238Z,41.40
2018-09-04T01:48:07.234Z,42.90
2018-09-04T01:49:07.214Z,43.60
2018-09-04T01:50:07.205Z,43.70
2018-09-04T01:51:07.234Z,42.40
2018-09-04T01:52:07.205Z,44.50
2018-09-04T01:53:07.175Z,42.90
2018-09-04T01:54:07.163Z,44.00
2018-09-04T01:55:07.150Z,43.90
2018-09-04T01:56:07.137Z,44.70
2018-09-04T01:57:07.143Z,43.20
2018-09-04T01:58:07.117Z,43.40
2018-09-04T01:59:07.106Z,43.00
2018-09-04T02:00:07.096Z,46.00
2018-09-04T02:01:07.084Z,47.20
2018-09-04T02:02:07.084Z,46.90
2018-09-04T02:03:07.079Z,44.20
2018-09-04T02:04:07.050Z,46.80
2018-09-04T02:05:07.037Z,44.60
2018-09-04T02:06:07.028Z,46.90
2018-09-04T02:07:07.020Z,48.90
2018-09-04T02:08:07.007Z,46.60
2018-09-04T02:09:07.012Z,47.10
2018-09-04T02:10:06.983Z,48.60
2018-09-04T02:11:06.972Z,49.70
2018-09-04T02:12:06.974Z,49.80
2018-09-04T02:13:06.974Z,48.90
2018-09-04T02:14:06.942Z,47.90
2018-09-04T02:15:06.927Z,48.50
2018-09-04T02:16:06.918Z,49.60
2018-09-04T02:17:06.908Z,48.80
2018-09-04T02:18:06.894Z,48.60
2018-09-04T02:19:06.895Z,48.80
2018-09-04T02:20:06.873Z,49.50
2018-09-04T02:21:06.864Z,50.20
2018-09-04T02:22:06.852Z,51.00
2018-09-04T02:23:06.842Z,50.00
2018-09-04T02:24:06.847Z,50.40
2018-09-04T02:25:06.822Z,51.30
2018-09-04T02:26:06.809Z,52.10
2018-09-04T02:27:06.814Z,51.80
2018-09-04T02:28:06.784Z,51.60
2018-09-04T02:29:06.774Z,53.90
2018-09-04T02:30:06.765Z,51.00
2018-09-04T02:31:06.755Z,52.70
2018-09-04T02:32:06.743Z,51.50
2018-09-04T02:33:06.804Z,51.40
2018-09-04T02:34:06.722Z,52.10
2018-09-04T02:35:06.711Z,52.20
2018-09-04T02:36:06.701Z,52.60
2018-09-04T02:37:06.687Z,53.80
2018-09-04T02:38:06.726Z,53.00
2018-09-04T02:39:06.675Z,54.60
2018-09-04T02:40:06.654Z,55.60
2018-09-04T02:41:06.641Z,55.80
2018-09-04T02:42:06.632Z,55.30
2018-09-04T02:43:06.623Z,55.30
2018-09-04T02:44:06.651Z,54.70
2018-09-04T02:45:06.601Z,54.80
2018-09-04T02:46:06.592Z,54.00
2018-09-04T02:47:06.581Z,56.30
2018-09-04T02:48:06.570Z,54.80
2018-09-04T02:49:06.559Z,54.40
2018-09-04T02:50:06.572Z,54.70
2018-09-04T02:51:06.537Z,55.30
2018-09-04T02:52:06.527Z,51.90
2018-09-04T02:53:06.515Z,55.10
2018-09-04T02:54:06.503Z,55.10
2018-09-04T02:55:06.493Z,56.10
2018-09-04T02:56:06.491Z,55.70
2018-09-04T02:57:06.467Z,56.70
2018-09-04T02:58:06.458Z,55.50
2018-09-04T02:59:06.448Z,53.60
2018-09-04T03:00:06.453Z,55.10
2018-09-04T03:01:06.427Z,56.00
2018-09-04T03:02:06.423Z,55.60
2018-09-04T03:03:06.400Z,57.30
2018-09-04T03:04:06.394Z,56.50
2018-09-04T03:05:06.408Z,56.40
2018-09-04T03:06:06.372Z,56.10
2018-09-04T03:07:06.359Z,54.30
2018-09-04T03:08:06.347Z,53.60
2018-09-04T03:09:06.341Z,54.20
2018-09-04T03:10:06.327Z,54.70
2018-09-04T03:11:06.327Z,56.60
2018-09-04T03:12:06.306Z,55.10
2018-09-04T03:13:06.295Z,54.90
2018-09-04T03:14:06.282Z,56.50
2018-09-04T03:15:06.272Z,54.40
2018-09-04T03:16:06.278Z,53.10
2018-09-04T03:17:06.248Z,57.00
2018-09-04T03:18:06.246Z,56.10
2018-09-04T03:19:06.241Z,57.00
2018-09-04T03:20:06.216Z,56.20
2018-09-04T03:21:06.208Z,56.10
2018-09-04T03:22:06.209Z,55.10
2018-09-04T03:23:06.248Z,55.80
2018-09-04T03:24:06.184Z,56.80
2018-09-04T03:25:06.163Z,56.90
2018-09-04T03:26:06.155Z,56.70
2018-09-04T03:27:06.154Z,54.90
2018-09-04T03:28:06.147Z,57.20
2018-09-04T03:29:06.142Z,57.40
2018-09-04T03:30:06.110Z,54.10
2018-09-04T03:31:06.099Z,56.60
2018-09-04T03:32:06.091Z,57.00
2018-09-04T03:33:06.091Z,56.20
2018-09-04T03:34:06.080Z,58.20
2018-09-04T03:35:06.053Z,57.10
2018-09-04T03:36:06.047Z,57.10
2018-09-04T03:37:06.066Z,57.10
2018-09-04T03:38:06.019Z,56.90
2018-09-04T03:39:06.015Z,57.30
2018-09-04T03:40:06.019Z,58.50
2018-09-04T03:41:05.990Z,57.60
2018-09-04T03:42:05.978Z,61.50
2018-09-04T03:43:05.968Z,57.80
2018-09-04T03:44:05.953Z,60.10
2018-09-04T03:45:05.942Z,58.60
2018-09-04T03:46:05.947Z,59.70
2018-09-04T03:47:05.929Z,60.50
2018-09-04T03:48:05.909Z,59.90
2018-09-04T03:49:05.898Z,61.90
2018-09-04T03:50:05.918Z,61.80
2018-09-04T03:51:05.878Z,61.50
2018-09-04T03:52:05.898Z,59.80
2018-09-04T03:53:05.859Z,61.10
2018-09-04T03:54:05.844Z,59.10
2018-09-04T03:55:05.831Z,57.30
2018-09-04T03:56:05.843Z,59.10
2018-09-04T03:57:05.815Z,58.20
2018-09-04T03:58:05.801Z,57.70
2018-09-04T03:59:05.787Z,58.10
2018-09-04T04:00:05.802Z,60.70
2018-09-04T04:01:05.775Z,59.20
2018-09-04T04:02:05.753Z,59.80
2018-09-04T04:03:05.743Z,61.20
2018-09-04T04:04:05.733Z,60.70
2018-09-04T04:05:05.725Z,59.60
2018-09-04T04:06:05.723Z,59.90
2018-09-04T04:07:05.701Z,61.10
2018-09-04T04:08:05.690Z,61.30
2018-09-04T04:09:05.676Z,63.10
2018-09-04T04:10:05.667Z,62.00
2018-09-04T04:11:05.668Z,64.70
2018-09-04T04:12:05.748Z,62.50
2018-09-04T04:13:05.631Z,62.20
2018-09-04T04:14:05.622Z,64.00
2018-09-04T04:15:05.614Z,63.70
2018-09-04T04:16:05.636Z,64.90
2018-09-04T04:17:05.597Z,63.00
2018-09-04T04:18:05.578Z,65.50
2018-09-04T04:19:05.568Z,67.40
2018-09-04T04:20:05.556Z,69.10
2018-09-04T04:21:05.545Z,66.20
2018-09-04T04:22:05.543Z,66.90
2018-09-04T04:23:05.523Z,67.50
2018-09-04T04:24:05.513Z,64.50
2018-09-04T04:25:05.501Z,66.00
2018-09-04T04:26:05.502Z,65.50
2018-09-04T04:27:05.517Z,63.80
2018-09-04T04:28:05.467Z,63.90
2018-09-04T04:29:05.455Z,65.30
2018-09-04T04:30:05.448Z,62.60
2018-09-04T04:31:05.432Z,63.70
2018-09-04T04:32:05.422Z,63.60
2018-09-04T04:33:05.518Z,62.80
2018-09-04T04:34:05.398Z,61.70
2018-09-04T04:35:05.390Z,64.00
2018-09-04T04:36:05.375Z,63.70
2018-09-04T04:37:05.376Z,64.70
2018-09-04T04:38:05.351Z,61.50
2018-09-04T04:39:05.347Z,60.50
2018-09-04T04:40:05.382Z,60.40
2018-09-04T04:41:05.324Z,61.90
2018-09-04T04:42:05.319Z,60.60
2018-09-04T04:43:05.296Z,61.20
2018-09-04T04:44:05.285Z,61.10
2018-09-04T04:45:05.276Z,63.20
2018-09-04T04:46:05.264Z,62.40
2018-09-04T04:47:05.271Z,60.80
2018-09-04T04:48:05.256Z,61.80
2018-09-04T04:49:05.235Z,61.20
2018-09-04T04:50:05.231Z,60.40
2018-09-04T04:51:05.208Z,61.70
2018-09-04T04:52:05.200Z,60.00
2018-09-04T04:53:05.189Z,62.50
2018-09-04T04:54:05.175Z,61.60
2018-09-04T04:55:05.177Z,61.50
2018-09-04T04:56:05.151Z,62.60
2018-09-04T04:57:05.140Z,62.00
2018-09-04T04:58:05.133Z,62.80
2018-09-04T04:59:05.120Z,62.70
2018-09-04T05:00:05.130Z,62.40
2018-09-04T05:01:05.099Z,61.80
2018-09-04T05:02:05.087Z,63.70
2018-09-04T05:03:05.073Z,62.20
2018-09-04T05:04:05.066Z,62.80
2018-09-04T05:05:05.070Z,61.20
2018-09-04T05:06:05.058Z,63.50
2018-09-04T05:07:05.030Z,62.30
2018-09-04T05:08:05.017Z,62.00
2018-09-04T05:09:05.009Z,62.80
2018-09-04T05:10:04.994Z,63.80
2018-09-04T05:11:05.065Z,64.60
2018-09-04T05:12:04.990Z,64.00
2018-09-04T05:13:04.963Z,61.50
2018-09-04T05:14:04.949Z,61.00
2018-09-04T05:15:04.938Z,62.30
2018-09-04T05:16:04.952Z,61.20
2018-09-04T05:17:04.919Z,61.50
2018-09-04T05:18:04.904Z,61.40
2018-09-04T05:19:04.896Z,60.80
2018-09-04T05:20:04.882Z,58.40
2018-09-04T05:21:04.870Z,59.30
2018-09-04T05:22:04.874Z,58.20
2018-09-04T05:23:04.849Z,57.10
2018-09-04T05:24:04.837Z,56.40
2018-09-04T05:25:04.829Z,55.70
2018-09-04T05:26:04.819Z,57.40
2018-09-04T05:27:04.819Z,55.30
2018-09-04T05:28:04.795Z,56.70
2018-09-04T05:29:04.786Z,54.50
2018-09-04T05:30:04.771Z,55.90
2018-09-04T05:31:04.762Z,55.40
2018-09-04T05:32:04.767Z,53.50
2018-09-04T05:33:04.744Z,54.80
2018-09-04T05:34:04.727Z,55.60
2018-09-04T05:35:04.730Z,53.30
2018-09-04T05:36:04.707Z,55.00
2018-09-04T05:37:04.712Z,53.80
2018-09-04T05:38:04.698Z,52.40
2018-09-04T05:39:04.678Z,54.20
2018-09-04T05:40:04.669Z,53.10
2018-09-04T05:41:04.654Z,52.40
2018-09-04T05:42:04.656Z,54.00
2018-09-04T05:43:04.633Z,54.00
2018-09-04T05:44:04.634Z,52.80
2018-09-04T05:45:04.614Z,52.30
2018-09-04T05:46:04.599Z,53.10
2018-09-04T05:47:04.587Z,53.00
2018-09-04T05:48:04.588Z,52.20
2018-09-04T05:49:04.572Z,50.20
2018-09-04T05:50:04.557Z,50.90
2018-09-04T05:51:04.546Z,51.00
2018-09-04T05:52:04.533Z,49.40
2018-09-04T05:53:04.538Z,49.20
2018-09-04T05:54:04.526Z,51.20
2018-09-04T05:55:04.557Z,48.10
2018-09-04T05:56:04.493Z,49.30
2018-09-04T05:57:04.482Z,49.00
2018-09-04T05:58:04.467Z,47.10
2018-09-04T05:59:04.494Z,48.70
2018-09-04T06:00:04.448Z,49.00
2018-09-04T06:01:04.438Z,46.90
2018-09-04T06:02:04.426Z,46.30
2018-09-04T06:03:04.419Z,47.50
2018-09-04T06:04:04.402Z,44.70
2018-09-04T06:05:04.409Z,46.80
2018-09-04T06:06:04.381Z,48.50
2018-09-04T06:07:04.369Z,46.60
2018-09-04T06:08:04.360Z,47.50
2018-09-04T06:09:04.351Z,46.40
2018-09-04T06:10:04.340Z,45.50
2018-09-04T06:11:04.372Z,46.90
2018-09-04T06:12:04.316Z,47.20
2018-09-04T06:13:04.307Z,46.20
2018-09-04T06:14:04.293Z,47.90
2018-09-04T06:15:04.285Z,48.90
2018-09-04T06:16:04.271Z,51.10
2018-09-04T06:17:04.284Z,49.60
2018-09-04T06:18:04.252Z,49.00
2018-09-04T06:19:04.237Z,48.50
2018-09-04T06:20:04.261Z,49.60
2018-09-04T06:21:04.220Z,48.50
2018-09-04T06:22:04.211Z,48.20
2018-09-04T06:23:04.213Z,48.90
2018-09-04T06:24:04.184Z,47.80
2018-09-04T06:25:04.187Z,48.70
2018-09-04T06:26:04.165Z,48.80
2018-09-04T06:27:04.166Z,48.60
2018-09-04T06:28:04.144Z,47.00
2018-09-04T06:29:04.130Z,47.00
2018-09-04T06:30:04.121Z,51.30
2018-09-04T06:31:04.133Z,48.80
2018-09-04T06:32:04.099Z,49.30
2018-09-04T06:33:04.088Z,48.70
2018-09-04T06:34:04.097Z,47.80
2018-09-04T06:35:04.067Z,49.70
2018-09-04T06:36:04.056Z,53.00
2018-09-04T06:37:04.081Z,52.00
2018-09-04T06:38:04.036Z,52.50
2018-09-04T06:39:04.022Z,51.70
2018-09-04T06:40:04.009Z,51.20
2018-09-04T06:41:03.998Z,51.90
2018-09-04T06:42:03.989Z,52.10
2018-09-04T06:43:03.992Z,51.20
2018-09-04T06:44:03.980Z,50.70
2018-09-04T06:45:03.971Z,49.70
2018-09-04T06:46:03.943Z,52.40
2018-09-04T06:47:03.932Z,54.10
2018-09-04T06:48:03.925Z,51.60
2018-09-04T06:49:03.926Z,53.60
2018-09-04T06:50:03.914Z,52.30
2018-09-04T06:51:03.888Z,53.20
2018-09-04T06:52:03.877Z,53.50
2018-09-04T06:53:03.869Z,53.60
2018-09-04T06:54:03.858Z,53.00
2018-09-04T06:55:03.859Z,50.50
2018-09-04T06:56:03.833Z,51.10
2018-09-04T06:57:03.825Z,52.90
2018-09-04T06:58:03.812Z,54.90
2018-09-04T06:59:03.803Z,53.60
2018-09-04T07:00:03.808Z,52.40
2018-09-04T07:01:03.795Z,53.00
2018-09-04T07:02:03.768Z,52.40
2018-09-04T07:03:03.760Z,53.00
2018-09-04T07:04:03.745Z,52.60
2018-09-04T07:05:03.736Z,52.10
2018-09-04T07:06:03.765Z,53.80
2018-09-04T07:07:03.733Z,54.10
2018-09-04T07:08:03.705Z,52.20
2018-09-04T07:09:03.692Z,52.30
2018-09-04T07:10:03.686Z,52.90
2018-09-04T07:11:03.686Z,52.90
2018-09-04T07:12:03.657Z,53.30
2018-09-04T07:13:03.649Z,50.70
2018-09-04T07:14:03.639Z,53.10
2018-09-04T07:15:03.654Z,52.00
2018-09-04T07:16:03.659Z,55.30
2018-09-04T07:17:03.614Z,54.30
2018-09-04T07:18:03.593Z,54.00
2018-09-04T07:19:03.581Z,55.00
2018-09-04T07:20:03.575Z,54.40
2018-09-04T07:21:03.561Z,55.50
2018-09-04T07:22:03.563Z,56.00
2018-09-04T07:23:03.539Z,54.30
2018-09-04T07:24:03.546Z,54.90
2018-09-04T07:25:03.533Z,54.40
2018-09-04T07:26:03.506Z,53.10
2018-09-04T07:27:03.538Z,53.50
2018-09-04T07:28:03.487Z,52.10
2018-09-04T07:29:03.475Z,53.40
2018-09-04T07:30:03.465Z,53.10
2018-09-04T07:31:03.452Z,52.20
2018-09-04T07:32:03.440Z,53.90
2018-09-04T07:33:03.442Z,53.20
2018-09-04T07:34:03.419Z,52.70
2018-09-04T07:35:03.408Z,54.70
2018-09-04T07:36:03.397Z,53.00
2018-09-04T07:37:03.410Z,52.70
2018-09-04T07:38:03.374Z,52.50
2018-09-04T07:39:03.363Z,52.40
2018-09-04T07:40:03.352Z,51.40
2018-09-04T07:41:03.341Z,51.20
2018-09-04T07:42:03.395Z,50.70
2018-09-04T07:43:03.335Z,51.20
2018-09-04T07:44:03.311Z,52.40
2018-09-04T07:45:03.302Z,52.10
2018-09-04T07:46:03.289Z,51.80
2018-09-04T07:47:03.275Z,52.20
2018-09-04T07:48:03.284Z,51.50
2018-09-04T07:49:03.280Z,52.80
2018-09-04T07:50:03.248Z,53.20
2018-09-04T07:51:03.235Z,53.00
2018-09-04T07:52:03.223Z,51.10
2018-09-04T07:53:03.210Z,52.20
2018-09-04T07:54:03.206Z,51.20
2018-09-04T07:55:03.205Z,51.80
2018-09-04T07:56:03.179Z,51.20
2018-09-04T07:57:03.178Z,51.30
2018-09-04T07:58:03.159Z,50.90
2018-09-04T07:59:03.148Z,52.80
2018-09-04T08:00:03.155Z,50.20
2018-09-04T08:01:03.191Z,51.80
2018-09-04T08:02:03.112Z,48.90
2018-09-04T08:03:03.108Z,49.50
2018-09-04T08:04:03.096Z,50.90
2018-09-04T08:05:03.099Z,49.10
2018-09-04T08:06:03.073Z,49.70
2018-09-04T08:07:03.061Z,50.40
2018-09-04T08:08:03.051Z,50.30
2018-09-04T08:09:03.053Z,48.30
2018-09-04T08:10:03.038Z,49.80
2018-09-04T08:11:03.019Z,47.80
2018-09-04T08:12:03.008Z,48.80
2018-09-04T08:13:02.995Z,48.50
2018-09-04T08:14:02.996Z,49.00
2018-09-04T08:15:02.973Z,48.90
2018-09-04T08:16:02.963Z,48.20
2018-09-04T08:17:02.951Z,47.10
2018-09-04T08:18:02.937Z,46.50
2018-09-04T08:19:02.953Z,46.20
2018-09-04T08:20:02.916Z,44.70
2018-09-04T08:21:02.909Z,45.90
2018-09-04T08:22:02.897Z,43.00
2018-09-04T08:23:02.888Z,44.90
2018-09-04T08:24:02.884Z,43.50
2018-09-04T08:25:02.873Z,44.10
2018-09-04T08:26:02.920Z,45.80
2018-09-04T08:27:02.844Z,45.50
2018-09-04T08:28:02.850Z,42.60
2018-09-04T08:29:02.823Z,42.80
2018-09-04T08:30:02.824Z,40.30
2018-09-04T08:31:02.805Z,39.50
2018-09-04T08:32:02.789Z,38.90
2018-09-04T08:33:02.817Z,41.00
2018-09-04T08:34:02.768Z,40.40
2018-09-04T08:35:02.759Z,40.40
2018-09-04T08:36:02.748Z,41.30
2018-09-04T08:37:02.736Z,40.90
2018-09-04T08:38:02.725Z,39.20
2018-09-04T08:39:02.741Z,39.10
2018-09-04T08:40:02.724Z,38.60
2018-09-04T08:41:02.697Z,38.40
2018-09-04T08:42:02.681Z,38.90
2018-09-04T08:43:02.674Z,39.40
2018-09-04T08:44:02.660Z,38.30
2018-09-04T08:45:02.675Z,38.10
2018-09-04T08:46:02.634Z,39.20
2018-09-04T08:47:02.635Z,37.60
2018-09-04T08:48:02.616Z,39.00
2018-09-04T08:49:02.613Z,38.80
2018-09-04T08:50:02.602Z,39.80
2018-09-04T08:51:02.602Z,39.00
2018-09-04T08:52:02.577Z,39.90
2018-09-04T08:53:02.565Z,40.60
2018-09-04T08:54:02.554Z,40.60
2018-09-04T08:55:02.547Z,42.20
2018-09-04T08:56:02.549Z,41.70
2018-09-04T08:57:02.541Z,41.60
2018-09-04T08:58:02.514Z,41.00
2018-09-04T08:59:02.506Z,43.40
2018-09-04T09:00:02.501Z,41.90
2018-09-04T09:01:02.482Z,41.20
2018-09-04T09:02:02.467Z,42.50
2018-09-04T09:03:02.482Z,42.60
2018-09-04T09:04:02.449Z,43.10
2018-09-04T09:05:02.440Z,39.90
2018-09-04T09:06:02.426Z,39.80
2018-09-04T09:07:02.414Z,38.60
2018-09-04T09:08:02.402Z,39.30
2018-09-04T09:09:02.414Z,38.10
2018-09-04T09:10:02.388Z,37.90
2018-09-04T09:11:02.372Z,39.80
2018-09-04T09:12:02.361Z,37.70
2018-09-04T09:13:02.393Z,39.30
2018-09-04T09:14:02.340Z,40.50
2018-09-04T09:15:02.332Z,41.00
2018-09-04T09:16:02.322Z,40.90
2018-09-04T09:17:02.310Z,40.10
2018-09-04T09:18:02.297Z,39.50
2018-09-04T09:19:02.303Z,40.10
2018-09-04T09:20:02.280Z,39.70
2018-09-04T09:21:02.267Z,38.60
2018-09-04T09:22:02.256Z,38.40
2018-09-04T09:23:02.258Z,38.50
2018-09-04T09:24:02.283Z,39.10
2018-09-04T09:25:02.225Z,39.80
2018-09-04T09:26:02.216Z,39.00
2018-09-04T09:27:02.206Z,38.10
2018-09-04T09:28:02.196Z,40.50
2018-09-04T09:29:02.186Z,39.70
2018-09-04T09:30:02.252Z,39.00
2018-09-04T09:31:02.163Z,39.20
2018-09-04T09:32:02.153Z,39.60
2018-09-04T09:33:02.145Z,40.10
2018-09-04T09:34:02.134Z,37.50
2018-09-04T09:35:02.139Z,38.10
2018-09-04T09:36:02.126Z,38.90
2018-09-04T09:37:02.170Z,39.70
2018-09-04T09:38:02.092Z,38.40
2018-09-04T09:39:02.082Z,37.20
2018-09-04T09:40:02.081Z,37.30
2018-09-04T09:41:02.100Z,37.10
2018-09-04T09:42:02.051Z,38.20
2018-09-04T09:43:02.041Z,38.80
2018-09-04T09:44:02.028Z,38.40
2018-09-04T09:45:02.017Z,38.60
2018-09-04T09:46:02.006Z,38.70
2018-09-04T09:47:02.014Z,36.70
2018-09-04T09:48:01.987Z,38.10
2018-09-04T09:49:01.976Z,39.00
2018-09-04T09:50:01.969Z,37.50
2018-09-04T09:51:01.955Z,35.90
2018-09-04T09:52:01.960Z,36.50
2018-09-04T09:53:01.984Z,38.60
2018-09-04T09:54:01.999Z,37.30
2018-09-04T09:55:01.914Z,36.50
2018-09-04T09:56:01.926Z,37.10
2018-09-04T09:57:01.911Z,37.00
2018-09-04T09:58:01.883Z,38.10
2018-09-04T09:59:01.873Z,35.50
2018-09-04T10:00:01.887Z,35.40
2018-09-04T10:01:01.858Z,36.80
2018-09-04T10:02:01.873Z,36.60
2018-09-04T10:03:01.832Z,35.60
2018-09-04T10:04:01.920Z,38.30
2018-09-04T10:05:01.812Z,34.90
2018-09-04T10:06:01.803Z,36.10
2018-09-04T10:07:01.809Z,37.00
2018-09-04T10:08:01.823Z,36.30
2018-09-04T10:09:01.772Z,34.60
2018-09-04T10:10:01.798Z,33.40
2018-09-04T10:11:01.749Z,37.30
2018-09-04T10:12:01.742Z,37.70
2018-09-04T10:13:01.744Z,36.90
2018-09-04T10:14:01.763Z,35.80
2018-09-04T10:15:01.709Z,31.70
2018-09-04T10:16:01.700Z,33.00
2018-09-04T10:17:01.689Z,34.00
2018-09-04T10:18:01.695Z,32.90
2018-09-04T10:19:01.670Z,32.90
2018-09-04T10:20:01.787Z,33.70
2018-09-04T10:21:01.646Z,33.90
2018-09-04T10:22:01.639Z,33.60
2018-09-04T10:23:01.654Z,33.90
2018-09-04T10:24:01.615Z,32.00
2018-09-04T10:25:01.605Z,31.70
2018-09-04T10:26:01.598Z,30.40
2018-09-04T10:27:01.585Z,30.30
2018-09-04T10:28:01.580Z,30.80
2018-09-04T10:29:01.582Z,29.40
2018-09-04T10:30:01.555Z,28.40
2018-09-04T10:31:01.546Z,29.50
2018-09-04T10:32:01.535Z,30.80
2018-09-04T10:33:01.526Z,28.80
2018-09-04T10:34:01.526Z,29.40
2018-09-04T10:35:01.508Z,28.40
2018-09-04T10:36:01.497Z,27.00
2018-09-04T10:37:01.496Z,28.60
2018-09-04T10:38:01.476Z,28.20
2018-09-04T10:39:01.506Z,26.10
2018-09-04T10:40:01.458Z,29.30
2018-09-04T10:41:01.443Z,30.70
2018-09-04T10:42:01.453Z,27.50
2018-09-04T10:43:01.423Z,26.00
2018-09-04T10:44:01.418Z,27.30
2018-09-04T10:45:01.419Z,26.10
2018-09-04T10:46:01.396Z,24.00
2018-09-04T10:47:01.384Z,23.80
2018-09-04T10:48:01.375Z,24.70
2018-09-04T10:49:01.389Z,26.30
2018-09-04T10:50:01.356Z,24.60
2018-09-04T10:51:01.342Z,20.70
2018-09-04T10:52:01.335Z,20.70
2018-09-04T10:53:01.321Z,22.90
2018-09-04T10:54:01.309Z,25.20
2018-09-04T10:55:01.321Z,24.80
2018-09-04T10:56:01.291Z,26.10
2018-09-04T10:57:01.282Z,21.30
2018-09-04T10:58:01.272Z,18.10
2018-09-04T10:59:01.265Z,24.10
2018-09-04T11:00:01.252Z,24.90
2018-09-04T11:01:01.251Z,14.40
2018-09-04T11:02:01.281Z,13.30
2018-09-04T11:03:01.217Z,14.20
2018-09-04T11:04:01.208Z,13.30
2018-09-04T11:05:01.197Z,13.70
2018-09-04T11:06:01.187Z,13.30
2018-09-04T11:07:01.178Z,13.50
2018-09-04T11:08:01.185Z,13.80
2018-09-04T11:09:01.174Z,14.10
2018-09-04T11:10:01.333Z,12.90
2018-09-04T11:11:01.153Z,13.70
2018-09-04T11:12:01.128Z,13.00
2018-09-04T11:13:01.115Z,12.70
2018-09-04T11:14:01.105Z,13.00
2018-09-04T11:15:01.150Z,13.20
2018-09-04T11:16:01.104Z,13.00
2018-09-04T11:17:01.075Z,14.70
2018-09-04T11:18:01.066Z,12.70
2018-09-04T11:19:01.057Z,12.40
2018-09-04T11:20:01.045Z,12.30
2018-09-04T11:21:01.052Z,11.70
2018-09-04T11:22:01.045Z,11.30
2018-09-04T11:23:01.020Z,11.70
2018-09-04T11:24:01.005Z,12.50
2018-09-04T11:25:00.995Z,11.60
2018-09-04T11:26:00.988Z,11.80
2018-09-04T11:27:00.984Z,11.50
2018-09-04T11:28:00.980Z,10.90
2018-09-04T11:29:00.960Z,10.60
2018-09-04T11:30:00.951Z,10.00
2018-09-04T11:31:00.954Z,11.40
2018-09-04T11:32:00.930Z,10.10
2018-09-04T11:33:00.940Z,11.70
2018-09-04T11:34:00.913Z,11.40
2018-09-04T11:35:00.899Z,11.70
2018-09-04T11:36:00.891Z,12.30
2018-09-04T11:37:00.881Z,11.80
2018-09-04T11:38:00.871Z,11.80
2018-09-04T11:39:00.873Z,11.30
2018-09-04T11:40:00.882Z,10.50
2018-09-04T11:41:00.838Z,10.80
2018-09-04T11:42:00.827Z,11.00
2018-09-04T11:43:00.818Z,11.20
2018-09-04T11:44:00.821Z,11.70
2018-09-04T11:45:00.800Z,12.00
2018-09-04T11:46:00.789Z,11.10
2018-09-04T11:47:00.854Z,11.70
2018-09-04T11:48:00.770Z,11.60
2018-09-04T11:49:00.777Z,12.00
2018-09-04T11:50:00.755Z,12.50
2018-09-04T11:51:00.740Z,12.30
2018-09-04T11:52:00.732Z,11.90
2018-09-04T11:53:00.746Z,10.80
2018-09-04T11:54:00.708Z,12.10
2018-09-04T11:55:00.700Z,10.90
2018-09-04T11:56:00.690Z,11.00
2018-09-04T11:57:00.686Z,11.00
2018-09-04T11:58:00.691Z,10.90
2018-09-04T11:59:00.663Z,10.90
2018-09-04T12:00:00.655Z,10.80
2018-09-04T12:01:00.644Z,10.90
2018-09-04T12:02:00.640Z,10.50
2018-09-04T12:03:00.624Z,10.00
2018-09-04T12:04:00.627Z,9.90
2018-09-04T12:05:00.614Z,10.50
2018-09-04T12:06:00.594Z,9.80
2018-09-04T12:07:00.585Z,9.80
2018-09-04T12:08:00.573Z,11.40
2018-09-04T12:09:00.580Z,11.30
2018-09-04T12:10:00.572Z,11.60
2018-09-04T12:11:00.545Z,11.70
2018-09-04T12:12:00.536Z,12.50
2018-09-04T12:13:00.604Z,11.50
2018-09-04T12:14:00.528Z,11.40
2018-09-04T12:15:00.502Z,11.10
2018-09-04T12:16:00.492Z,10.50
2018-09-04T12:17:00.501Z,10.90
2018-09-04T12:18:00.474Z,12.30
2018-09-04T12:19:00.476Z,11.30
2018-09-04T12:20:00.469Z,10.40
2018-09-04T12:21:00.619Z,11.20
2018-09-04T12:22:00.435Z,11.20
2018-09-04T12:23:00.427Z,11.00
2018-09-04T12:24:00.425Z,11.20
2018-09-04T12:25:00.407Z,10.70
2018-09-04T12:26:00.410Z,10.80
2018-09-04T12:27:00.407Z,10.70
2018-09-04T12:28:00.377Z,11.60
2018-09-04T12:29:00.365Z,11.00
2018-09-04T12:30:00.353Z,11.20
2018-09-04T12:31:00.378Z,11.30
2018-09-04T12:32:00.349Z,11.40
2018-09-04T12:33:00.333Z,11.70
2018-09-04T12:34:00.354Z,11.60
2018-09-04T12:35:00.304Z,12.20
2018-09-04T12:36:00.297Z,11.70
2018-09-04T12:37:00.323Z,10.70
2018-09-04T12:38:00.271Z,10.80
2018-09-04T12:39:00.264Z,10.30
2018-09-04T12:40:00.252Z,10.30
2018-09-04T12:41:00.243Z,9.30
2018-09-04T12:42:00.233Z,9.60
2018-09-04T12:43:00.236Z,9.50
2018-09-04T12:44:00.208Z,10.40
2018-09-04T12:45:00.201Z,10.40
2018-09-04T12:46:00.192Z,10.20
2018-09-04T12:47:00.197Z,10.80
2018-09-04T12:48:00.195Z,10.00
2018-09-04T12:49:00.160Z,10.30
2018-09-04T12:50:00.148Z,10.70
2018-09-04T12:51:00.140Z,10.00
2018-09-04T12:52:00.153Z,10.50